Time;durP1;ratioP1;P1;durP2;ratioP2;P2;SDS_P1;SDS_P2;PMS_P1;PMS_P2;Temp;Humidity;BMP_temperature;BMP_pressure;BME280_temperature;BME280_humidity;BME280_pressure;Samples;Min_cycle;Max_cycle;Signal;HPM_P1;HPM_P2
2022/07/12 00:01:42;;;;;;;4.80;4.30;;;537.60;1331.20;;;;;;5122322;28;20043;-73
2022/07/12 00:04:08;;;;;;;5.07;4.57;;;537.60;1331.20;;;;;;5122799;28;20055;-74
2022/07/12 00:06:34;;;;;;;5.28;4.78;;;537.60;1561.60;;;;;;5126164;27;20557;-74
2022/07/12 00:08:59;;;;;;;4.90;4.43;;;588.80;1356.80;;;;;;5134041;27;20648;-74
2022/07/12 00:11:25;;;;;;;5.18;4.68;;;537.60;1484.80;;;;;;5124913;27;20212;-73
2022/07/12 00:13:51;;;;;;;4.75;4.25;;;537.60;1510.40;;;;;;5142985;27;20066;-75
2022/07/12 00:16:16;;;;;;;5.47;4.60;;;537.60;1305.60;;;;;;5142823;27;20466;-66
2022/07/12 00:18:42;;;;;;;5.88;5.00;;;537.60;1587.20;;;;;;5124354;27;20074;-74
2022/07/12 00:21:08;;;;;;;5.65;4.78;;;588.80;1408.00;;;;;;5143288;27;20066;-73
2022/07/12 00:23:34;;;;;;;5.22;4.53;;;537.60;1331.20;;;;;;5124271;27;20039;-73
2022/07/12 00:26:04;;;;;;;5.35;4.82;;;537.60;1356.80;;;;;;5143007;27;20045;-73
2022/07/12 00:28:32;;;;;;;5.53;4.93;;;537.60;1356.80;;;;;;5141094;27;20047;-73
2022/07/12 00:30:59;;;;;;;5.35;4.85;;;537.60;1305.60;;;;;;5142477;27;20043;-70
2022/07/12 00:33:25;;;;;;;5.38;4.88;;;537.60;1561.60;;;;;;5142281;27;20135;-75
2022/07/12 00:35:51;;;;;;;6.07;5.47;;;537.60;1433.60;;;;;;5142194;27;20058;-74
2022/07/12 00:38:17;;;;;;;5.72;5.10;;;537.60;1331.20;;;;;;5124117;27;20054;-72
2022/07/12 00:40:43;;;;;;;5.70;5.20;;;537.60;1433.60;;;;;;5142909;27;20408;-73
2022/07/12 00:43:09;;;;;;;5.75;5.00;;;537.60;1382.40;;;;;;5123611;27;20050;-72
2022/07/12 00:45:34;;;;;;;5.75;5.15;;;588.80;1561.60;;;;;;5141904;27;20054;-72
2022/07/12 00:48:00;;;;;;;5.40;4.90;;;537.60;1536.00;;;;;;5142544;27;20440;-72
2022/07/12 00:50:26;;;;;;;5.85;5.25;;;614.40;1561.60;;;;;;5142455;27;20038;-73
2022/07/12 00:52:54;;;;;;;6.00;5.40;;;537.60;1587.20;;;;;;5142959;27;20043;-73
2022/07/12 00:55:21;;;;;;;7.40;6.00;;;537.60;1331.20;;;;;;5141798;27;20419;-72
2022/07/12 00:57:47;;;;;;;5.97;5.15;;;537.60;1459.20;;;;;;5141851;27;20134;-71
2022/07/12 01:00:18;;;;;;;5.82;5.32;;;512.00;1587.20;;;;;;5143148;27;20035;-72
2022/07/12 01:02:44;;;;;;;6.00;5.40;;;537.60;1484.80;;;;;;5142294;27;20129;-72
2022/07/12 01:05:10;;;;;;;5.65;5.15;;;537.60;1305.60;;;;;;5145773;27;20043;-73
2022/07/12 01:07:38;;;;;;;6.18;5.57;;;537.60;1433.60;;;;;;5130753;22;20064;-72
2022/07/12 01:10:05;;;;;;;5.63;5.13;;;537.60;1331.20;;;;;;5053884;28;20143;-73
2022/07/12 01:12:31;;;;;;;5.35;4.85;;;537.60;1331.20;;;;;;5063449;28;20044;-72
2022/07/12 01:14:58;;;;;;;6.13;4.78;;;537.60;1433.60;;;;;;5063870;28;20041;-72
2022/07/12 01:17:25;;;;;;;6.75;5.43;;;537.60;1305.60;;;;;;5064059;28;20087;-72
2022/07/12 01:19:53;;;;;;;5.93;5.20;;;537.60;1459.20;;;;;;5064202;28;20122;-72
2022/07/12 01:22:20;;;;;;;6.88;5.45;;;512.00;1561.60;;;;;;5063873;28;20070;-73
2022/07/12 01:24:46;;;;;;;5.97;5.38;;;537.60;1408.00;;;;;;5064654;28;20041;-74
2022/07/12 01:27:13;;;;;;;5.75;5.13;;;537.60;1382.40;;;;;;5063581;28;20154;-72
2022/07/12 01:29:39;;;;;;;6.75;5.05;;;537.60;1331.20;;;;;;5063934;28;20048;-72
2022/07/12 01:32:24;;;;;;;6.30;5.63;;;537.60;1382.40;;;;;;5064015;28;20044;-72
2022/07/12 01:34:52;;;;;;;5.50;5.00;;;537.60;1305.60;;;;;;5063557;28;20194;-73
2022/07/12 01:37:19;;;;;;;5.60;5.10;;;537.60;1459.20;;;;;;5062321;28;20045;-72
2022/07/12 01:39:46;;;;;;;5.68;5.18;;;537.60;1561.60;;;;;;5064075;28;20044;-72
2022/07/12 01:42:12;;;;;;;5.63;5.03;;;537.60;1536.00;;;;;;5063392;28;20049;-72
2022/07/12 01:44:38;;;;;;;5.35;4.85;;;537.60;1433.60;;;;;;5063704;28;20532;-73
2022/07/12 01:47:04;;;;;;;5.90;5.30;;;537.60;1382.40;;;;;;5063961;28;20045;-72
2022/07/12 01:49:30;;;;;;;5.90;5.30;;;537.60;1408.00;;;;;;5063698;28;20052;-71
2022/07/12 01:51:57;;;;;;;5.20;4.70;;;537.60;1561.60;;;;;;5063140;28;20071;-72
2022/07/12 01:54:24;;;;;;;5.90;5.30;;;537.60;1305.60;;;;;;5063548;28;20048;-73
2022/07/12 01:56:50;;;;;;;5.28;4.78;;;537.60;1433.60;;;;;;5062866;28;20047;-73
2022/07/12 01:59:15;;;;;;;6.20;5.63;;;537.60;1408.00;;;;;;5063612;28;20048;-73
2022/07/12 02:01:43;;;;;;;5.72;5.13;;;537.60;1433.60;;;;;;5063097;28;20052;-67
2022/07/12 02:04:09;;;;;;;6.00;5.40;;;640.00;1254.40;;;;;;5063652;28;20044;-73
2022/07/12 02:06:35;;;;;;;5.38;4.88;;;537.60;1536.00;;;;;;5059868;28;20055;-73
2022/07/12 02:09:01;;;;;;;5.38;4.88;;;537.60;1536.00;;;;;;5053922;28;20673;-73
2022/07/12 02:11:27;;;;;;;5.53;5.03;;;537.60;1561.60;;;;;;5062498;28;20045;-73
2022/07/12 02:13:52;;;;;;;5.72;5.22;;;537.60;1433.60;;;;;;5063580;28;20105;-73
2022/07/12 02:16:18;;;;;;;5.80;5.20;;;537.60;1433.60;;;;;;5062414;28;20041;-72
2022/07/12 02:18:43;;;;;;;5.68;5.10;;;588.80;1433.60;;;;;;5063164;28;20048;-72
2022/07/12 02:21:09;;;;;;;5.75;5.22;;;588.80;1382.40;;;;;;5063097;28;20112;-72
2022/07/12 02:23:35;;;;;;;6.40;5.80;;;614.40;1382.40;;;;;;5062881;28;20057;-72
2022/07/12 02:26:00;;;;;;;6.05;5.00;;;563.20;1408.00;;;;;;5062988;28;20083;-72
2022/07/12 02:28:26;;;;;;;5.30;4.80;;;537.60;1433.60;;;;;;5061786;28;20144;-73
2022/07/12 02:30:51;;;;;;;5.30;4.80;;;537.60;1536.00;;;;;;5063400;28;20068;-73
2022/07/12 02:33:19;;;;;;;5.28;4.78;;;563.20;1331.20;;;;;;5062456;28;20516;-72
2022/07/12 02:35:45;;;;;;;5.57;4.90;;;563.20;1305.60;;;;;;5061800;28;20124;-72
2022/07/12 02:38:11;;;;;;;5.72;5.13;;;537.60;1561.60;;;;;;5062457;28;20045;-72
2022/07/12 02:40:55;;;;;;;4.80;4.40;;;537.60;1536.00;;;;;;5062598;28;20090;-72
2022/07/12 02:43:20;;;;;;;5.07;4.57;;;563.20;1433.60;;;;;;5061453;28;20441;-72
2022/07/12 02:45:46;;;;;;;5.28;4.78;;;537.60;1433.60;;;;;;5062797;28;20086;-73
2022/07/12 02:48:12;;;;;;;5.60;5.07;;;537.60;1536.00;;;;;;5063017;28;20067;-72
2022/07/12 02:50:38;;;;;;;5.30;4.80;;;537.60;1587.20;;;;;;5062506;28;20418;-72
2022/07/12 02:53:05;;;;;;;5.65;5.15;;;537.60;1561.60;;;;;;5061634;28;20049;-73
2022/07/12 02:55:31;;;;;;;5.30;4.80;;;537.60;1408.00;;;;;;5062528;28;20428;-73
2022/07/12 02:57:56;;;;;;;4.80;4.28;;;588.80;1408.00;;;;;;5059985;28;20139;-74
2022/07/12 03:00:22;;;;;;;5.13;4.63;;;537.60;1484.80;;;;;;5062428;28;20119;-73
2022/07/12 03:02:48;;;;;;;5.18;4.68;;;537.60;1331.20;;;;;;5061669;28;20084;-74
2022/07/12 03:05:13;;;;;;;4.63;4.22;;;537.60;1433.60;;;;;;5062797;28;20068;-71
2022/07/12 03:07:39;;;;;;;5.22;4.72;;;537.60;1536.00;;;;;;5055684;28;20060;-71
2022/07/12 03:10:05;;;;;;;4.78;4.38;;;537.60;1280.00;;;;;;5042988;28;20095;-72
2022/07/12 03:12:31;;;;;;;4.50;4.10;;;537.60;1280.00;;;;;;5041401;28;20049;-71
2022/07/12 03:14:57;;;;;;;4.93;4.40;;;537.60;1561.60;;;;;;5057671;28;20056;-71
2022/07/12 03:17:23;;;;;;;4.85;4.45;;;537.60;1382.40;;;;;;5041784;28;20128;-72
2022/07/12 03:19:48;;;;;;;4.95;4.30;;;537.60;1561.60;;;;;;5041290;28;20594;-72
2022/07/12 03:22:14;;;;;;;4.55;4.13;;;588.80;1331.20;;;;;;5042354;28;20044;-72
2022/07/12 03:24:40;;;;;;;4.57;4.05;;;588.80;1356.80;;;;;;5041431;28;20041;-71
2022/07/12 03:27:06;;;;;;;4.60;4.20;;;537.60;1356.80;;;;;;5040666;28;20107;-73
2022/07/12 03:29:31;;;;;;;5.45;4.50;;;537.60;1356.80;;;;;;5040837;28;20072;-72
2022/07/12 03:31:57;;;;;;;4.20;3.80;;;537.60;1561.60;;;;;;5041619;28;20140;-73
2022/07/12 03:34:23;;;;;;;4.68;4.07;;;537.60;1356.80;;;;;;5041504;28;20033;-72
2022/07/12 03:36:48;;;;;;;4.75;4.25;;;537.60;1536.00;;;;;;5041324;28;20040;-74
2022/07/12 03:39:14;;;;;;;4.10;3.70;;;537.60;1510.40;;;;;;5057292;28;20131;-73
2022/07/12 03:41:39;;;;;;;5.20;4.05;;;537.60;1510.40;;;;;;5056078;28;20072;-72
2022/07/12 03:44:06;;;;;;;4.30;3.90;;;563.20;1356.80;;;;;;5040425;28;20138;-74
2022/07/12 03:46:35;;;;;;;4.55;4.03;;;588.80;1382.40;;;;;;5040892;28;20554;-73
2022/07/12 03:49:00;;;;;;;4.63;3.88;;;537.60;1459.20;;;;;;5041660;28;20448;-72
2022/07/12 03:51:26;;;;;;;4.45;3.85;;;537.60;1459.20;;;;;;5041275;28;20081;-72
2022/07/12 03:53:52;;;;;;;4.72;4.22;;;537.60;1356.80;;;;;;5042071;28;20033;-73
2022/07/12 03:59:03;;;;;;;5.18;4.68;;;614.40;1280.00;;;;;;5041468;28;20136;-71
2022/07/12 04:01:29;;;;;;;4.80;4.35;;;537.60;1433.60;;;;;;5040853;28;20052;-72
2022/07/12 04:03:55;;;;;;;4.38;3.97;;;537.60;1561.60;;;;;;5041889;28;20171;-73
2022/07/12 04:06:21;;;;;;;5.10;4.60;;;588.80;1254.40;;;;;;5043575;28;20067;-72
2022/07/12 04:08:47;;;;;;;5.32;4.72;;;537.60;1280.00;;;;;;5050165;28;20063;-73
2022/07/12 04:11:12;;;;;;;5.00;4.50;;;537.60;1433.60;;;;;;5040436;28;20053;-72
2022/07/12 04:13:38;;;;;;;5.18;4.65;;;537.60;1484.80;;;;;;5056699;28;20473;-72
2022/07/12 04:16:05;;;;;;;4.63;3.85;;;614.40;1331.20;;;;;;5041039;28;20053;-70
2022/07/12 04:18:31;;;;;;;4.60;4.20;;;537.60;1408.00;;;;;;5041099;28;20491;-72
2022/07/12 04:20:56;;;;;;;4.72;4.10;;;537.60;1408.00;;;;;;5040769;28;20087;-72
2022/07/12 04:23:22;;;;;;;4.15;3.75;;;537.60;1459.20;;;;;;5041139;28;20048;-72
2022/07/12 04:25:48;;;;;;;3.92;3.53;;;537.60;1536.00;;;;;;5041267;28;20399;-69
2022/07/12 04:28:13;;;;;;;3.85;3.38;;;563.20;1305.60;;;;;;5040909;28;20033;-71
2022/07/12 04:30:39;;;;;;;3.63;3.22;;;537.60;1331.20;;;;;;5041794;28;20045;-70
2022/07/12 04:33:05;;;;;;;3.67;3.20;;;563.20;1433.60;;;;;;5042037;28;20188;-73
2022/07/12 04:35:31;;;;;;;4.03;3.50;;;537.60;1459.20;;;;;;5041231;28;20045;-76
2022/07/12 04:37:57;;;;;;;4.88;3.40;;;537.60;1433.60;;;;;;5040209;28;20513;-79
2022/07/12 04:40:22;;;;;;;3.58;3.22;;;537.60;1305.60;;;;;;5044375;28;20045;-75
2022/07/12 04:42:48;;;;;;;3.65;3.25;;;563.20;1459.20;;;;;;5044238;28;20053;-73
2022/07/12 04:45:14;;;;;;;3.92;3.28;;;537.60;1280.00;;;;;;5045318;28;20550;-72
2022/07/12 04:47:39;;;;;;;3.40;3.00;;;537.60;1408.00;;;;;;5044426;28;20045;-73
2022/07/12 04:50:08;;;;;;;3.55;3.20;;;563.20;1280.00;;;;;;5045070;28;20234;-72
2022/07/12 04:52:35;;;;;;;3.30;2.83;;;537.60;1356.80;;;;;;5044516;28;20620;-71
2022/07/12 04:55:00;;;;;;;3.50;3.20;;;588.80;1459.20;;;;;;5044467;28;20446;-72
2022/07/12 04:57:26;;;;;;;3.40;3.08;;;537.60;1280.00;;;;;;5043599;28;20056;-70
2022/07/12 04:59:52;;;;;;;3.50;3.20;;;512.00;1561.60;;;;;;5044522;28;20528;-71
2022/07/12 05:02:18;;;;;;;3.50;3.20;;;537.60;1536.00;;;;;;5059845;28;20053;-71
2022/07/12 05:04:44;;;;;;;4.32;3.00;;;537.60;1433.60;;;;;;5044152;28;20037;-73
2022/07/12 05:07:10;;;;;;;3.50;3.20;;;537.60;1280.00;;;;;;5050224;28;20040;-70
2022/07/12 05:09:35;;;;;;;3.72;3.20;;;537.60;1305.60;;;;;;5049348;28;20053;-73
2022/07/12 05:12:01;;;;;;;3.60;3.00;;;588.80;1382.40;;;;;;5043872;28;20447;-71
2022/07/12 05:14:27;;;;;;;4.35;3.00;;;537.60;1280.00;;;;;;5043553;28;20041;-70
2022/07/12 05:16:52;;;;;;;3.20;2.90;;;537.60;1280.00;;;;;;5059352;28;20095;-72
2022/07/12 05:19:18;;;;;;;3.70;3.30;;;537.60;1408.00;;;;;;5044150;28;20479;-71
2022/07/12 05:21:44;;;;;;;3.20;2.70;;;512.00;1459.20;;;;;;5044459;28;20094;-72
2022/07/12 05:24:10;;;;;;;3.65;2.90;;;537.60;1408.00;;;;;;5059311;28;20376;-73
2022/07/12 05:26:36;;;;;;;4.50;3.20;;;537.60;1561.60;;;;;;5058414;28;20086;-74
2022/07/12 05:29:02;;;;;;;3.35;3.05;;;537.60;1433.60;;;;;;5044051;28;20083;-72
2022/07/12 05:31:28;;;;;;;3.25;2.92;;;537.60;1433.60;;;;;;5042925;28;20128;-73
2022/07/12 05:33:54;;;;;;;3.55;2.95;;;537.60;1510.40;;;;;;5043857;28;20045;-74
2022/07/12 05:36:20;;;;;;;3.60;3.20;;;537.60;1356.80;;;;;;5043676;28;20052;-72
2022/07/12 05:38:46;;;;;;;3.38;3.05;;;537.60;1382.40;;;;;;5059590;28;20110;-65
2022/07/12 05:41:12;;;;;;;3.50;2.90;;;537.60;1536.00;;;;;;5058191;28;20055;-73
2022/07/12 05:43:38;;;;;;;3.55;3.25;;;537.60;1433.60;;;;;;5058567;28;20049;-73
2022/07/12 05:46:04;;;;;;;4.38;3.97;;;537.60;1382.40;;;;;;5043692;28;20045;-73
2022/07/12 05:48:30;;;;;;;4.05;3.65;;;537.60;1305.60;;;;;;5043587;28;20459;-73
2022/07/12 05:53:21;;;;;;;3.95;3.55;;;537.60;1408.00;;;;;;5042860;28;20098;-69
2022/07/12 05:53:41;;;;;;;4.55;3.50;;;563.20;1408.00;;;;;;5044020;28;20440;-73
2022/07/12 05:56:07;;;;;;;4.00;3.45;;;537.60;1382.40;;;;;;5042079;28;20071;-73
2022/07/12 05:58:32;;;;;;;5.18;3.88;;;537.60;1408.00;;;;;;5043409;28;20518;-73
2022/07/12 06:00:58;;;;;;;4.22;3.83;;;537.60;1382.40;;;;;;5043427;28;20059;-73
2022/07/12 06:03:24;;;;;;;3.72;3.30;;;537.60;1459.20;;;;;;5043144;28;20045;-73
2022/07/12 06:05:49;;;;;;;4.28;3.88;;;537.60;1561.60;;;;;;5043344;28;20044;-73
2022/07/12 06:08:15;;;;;;;3.97;3.58;;;537.60;1536.00;;;;;;5052614;28;20063;-72
2022/07/12 06:10:41;;;;;;;4.40;3.58;;;588.80;1536.00;;;;;;5058451;28;20124;-72
2022/07/12 06:13:07;;;;;;;4.70;3.97;;;588.80;1331.20;;;;;;5043144;28;20052;-72
2022/07/12 06:15:32;;;;;;;4.90;3.88;;;614.40;1510.40;;;;;;5042569;28;20045;-72
2022/07/12 06:17:58;;;;;;;5.38;3.70;;;537.60;1305.60;;;;;;5042832;28;20045;-72
2022/07/12 06:20:24;;;;;;;4.40;3.80;;;614.40;1484.80;;;;;;5042752;28;20036;-72
2022/07/12 06:22:51;;;;;;;3.72;3.05;;;537.60;1280.00;;;;;;5042579;28;20049;-73
2022/07/12 06:25:16;;;;;;;4.15;3.20;;;563.20;1356.80;;;;;;5042614;28;20037;-72
2022/07/12 06:27:42;;;;;;;4.43;3.78;;;563.20;1331.20;;;;;;5042283;28;20498;-73
2022/07/12 06:30:08;;;;;;;4.47;3.90;;;537.60;1561.60;;;;;;5042855;28;20033;-73
2022/07/12 06:32:34;;;;;;;5.00;4.25;;;563.20;1254.40;;;;;;5042224;28;20098;-73
2022/07/12 06:35:00;;;;;;;4.57;4.10;;;563.20;1280.00;;;;;;5042094;28;20613;-73
2022/07/12 06:37:25;;;;;;;4.63;4.13;;;537.60;1459.20;;;;;;5042526;28;20044;-73
2022/07/12 06:39:51;;;;;;;5.18;4.28;;;614.40;1331.20;;;;;;5042487;28;20076;-73
2022/07/12 06:42:17;;;;;;;4.85;4.30;;;563.20;1280.00;;;;;;5041273;28;20073;-66
2022/07/12 06:44:42;;;;;;;4.20;3.80;;;537.60;1408.00;;;;;;5043003;28;20457;-72
2022/07/12 06:47:08;;;;;;;4.90;4.30;;;563.20;1433.60;;;;;;5042182;28;20098;-73
2022/07/12 06:49:33;;;;;;;4.30;3.90;;;537.60;1382.40;;;;;;5042587;28;20444;-73
2022/07/12 06:51:59;;;;;;;4.47;3.75;;;537.60;1408.00;;;;;;5041204;28;20052;-72
2022/07/12 06:54:25;;;;;;;5.18;4.00;;;588.80;1356.80;;;;;;5057625;28;20040;-73
2022/07/12 06:56:51;;;;;;;4.70;4.13;;;563.20;1331.20;;;;;;5041439;28;20047;-73
2022/07/12 06:59:18;;;;;;;4.90;4.40;;;614.40;1228.80;;;;;;5056909;28;20624;-72
2022/07/12 07:01:43;;;;;;;5.03;4.10;;;563.20;1382.40;;;;;;5041643;28;20041;-68
2022/07/12 07:04:09;;;;;;;5.47;4.07;;;563.20;1254.40;;;;;;5057489;28;20056;-73
2022/07/12 07:06:35;;;;;;;4.45;4.05;;;563.20;1408.00;;;;;;5058013;28;20129;-74
2022/07/12 07:09:00;;;;;;;5.68;4.20;;;588.80;1356.80;;;;;;5051937;28;20416;-71
2022/07/12 07:11:26;;;;;;;5.95;3.67;;;588.80;1408.00;;;;;;5061118;28;20055;-72
2022/07/12 07:13:52;;;;;;;4.30;3.70;;;563.20;1510.40;;;;;;5060267;28;20055;-72
2022/07/12 07:16:20;;;;;;;4.72;3.47;;;537.60;1382.40;;;;;;5061724;28;20040;-72
2022/07/12 07:18:45;;;;;;;4.78;3.72;;;588.80;1280.00;;;;;;5061194;28;20079;-65
2022/07/12 07:21:11;;;;;;;5.28;3.70;;;563.20;1280.00;;;;;;5062291;28;20111;-72
2022/07/12 07:23:36;;;;;;;5.30;4.15;;;614.40;1331.20;;;;;;5061093;28;20044;-73
2022/07/12 07:26:02;;;;;;;4.25;3.70;;;588.80;1305.60;;;;;;5060895;28;20051;-79
2022/07/12 07:28:28;;;;;;;5.13;4.63;;;563.20;1433.60;;;;;;5061096;28;20447;-71
2022/07/12 07:30:54;;;;;;;9.38;4.10;;;588.80;1382.40;;;;;;5061463;28;20048;-72
2022/07/12 07:33:21;;;;;;;5.78;3.72;;;563.20;1280.00;;;;;;5061489;28;20060;-72
2022/07/12 07:35:48;;;;;;;5.63;3.10;;;563.20;1382.40;;;;;;5059286;28;20045;-73
2022/07/12 07:38:14;;;;;;;4.78;3.00;;;563.20;1433.60;;;;;;5061857;28;20136;-72
2022/07/12 07:40:40;;;;;;;4.95;3.40;;;563.20;1433.60;;;;;;5060277;28;20119;-72
2022/07/12 07:43:05;;;;;;;4.43;4.03;;;563.20;1408.00;;;;;;5060284;28;20599;-71
2022/07/12 07:45:31;;;;;;;5.25;3.60;;;563.20;1254.40;;;;;;5060618;28;20054;-71
2022/07/12 07:47:57;;;;;;;3.20;2.67;;;614.40;1356.80;;;;;;5061223;28;20080;-71
2022/07/12 07:50:23;;;;;;;3.42;2.88;;;588.80;1433.60;;;;;;5061645;28;20117;-74
2022/07/12 07:52:49;;;;;;;3.38;3.08;;;563.20;1331.20;;;;;;5061049;28;20048;-72
2022/07/12 07:55:15;;;;;;;5.82;2.88;;;563.20;1561.60;;;;;;5061739;28;20130;-65
2022/07/12 07:57:41;;;;;;;7.22;3.60;;;563.20;1408.00;;;;;;5061041;28;20147;-65
2022/07/12 08:00:07;;;;;;;6.18;3.30;;;614.40;1305.60;;;;;;5061386;28;20127;-74
2022/07/12 08:02:34;;;;;;;3.95;3.53;;;563.20;1280.00;;;;;;5060893;28;20037;-72
2022/07/12 08:05:00;;;;;;;4.43;3.30;;;563.20;1356.80;;;;;;5061363;28;20090;-75
2022/07/12 08:07:26;;;;;;;3.88;3.33;;;563.20;1561.60;;;;;;5054427;28;20040;-73
2022/07/12 08:09:51;;;;;;;3.83;3.42;;;563.20;1331.20;;;;;;5044246;28;20454;-72
2022/07/12 08:12:17;;;;;;;6.43;3.13;;;614.40;1408.00;;;;;;5040129;28;20132;-71
2022/07/12 08:14:43;;;;;;;3.42;2.92;;;563.20;1305.60;;;;;;5045743;28;20044;-72
2022/07/12 08:17:08;;;;;;;5.45;3.10;;;563.20;1280.00;;;;;;5045516;28;20060;-71
2022/07/12 08:19:34;;;;;;;4.05;2.97;;;588.80;1356.80;;;;;;5060595;28;20045;-72
2022/07/12 08:22:00;;;;;;;3.60;3.00;;;614.40;1280.00;;;;;;5044329;28;20045;-71
2022/07/12 08:24:25;;;;;;;3.83;3.40;;;588.80;1356.80;;;;;;5045111;28;20052;-71
2022/07/12 08:26:51;;;;;;;3.70;3.03;;;563.20;1331.20;;;;;;5043900;28;20064;-71
2022/07/12 08:29:17;;;;;;;4.15;3.53;;;588.80;1382.40;;;;;;5044958;28;20094;-67
2022/07/12 08:31:42;;;;;;;3.50;3.10;;;614.40;1433.60;;;;;;5044999;28;20499;-70
2022/07/12 08:34:09;;;;;;;4.32;3.20;;;563.20;1382.40;;;;;;5044621;28;20079;-70
2022/07/12 08:36:34;;;;;;;3.72;3.00;;;563.20;1356.80;;;;;;5044664;28;20041;-72
2022/07/12 08:39:00;;;;;;;4.70;3.20;;;563.20;1484.80;;;;;;5044268;28;20071;-70
2022/07/12 08:41:26;;;;;;;3.45;2.88;;;588.80;1382.40;;;;;;5044034;28;20969;-72
2022/07/12 08:43:51;;;;;;;3.25;2.80;;;588.80;1561.60;;;;;;5044910;28;20052;-70
2022/07/12 08:46:17;;;;;;;4.85;3.20;;;563.20;1510.40;;;;;;5042875;28;20048;-65
2022/07/12 08:48:43;;;;;;;4.15;3.42;;;588.80;1536.00;;;;;;5044820;28;20082;-65
2022/07/12 08:51:19;;;;;;;4.10;2.88;;;563.20;1280.00;;;;;;5044726;28;20064;-72
2022/07/12 08:53:45;;;;;;;4.25;2.88;;;588.80;1254.40;;;;;;5045067;28;20419;-65
2022/07/12 08:56:34;;;;;;;5.28;2.60;;;588.80;1510.40;;;;;;5043616;28;20041;-65
2022/07/12 08:59:20;;;;;;;4.53;2.78;;;588.80;1254.40;;;;;;5053663;28;20094;-72
2022/07/12 09:01:53;;;;;;;3.20;2.90;;;588.80;1433.60;;;;;;5060338;28;20048;-65
2022/07/12 09:04:23;;;;;;;3.63;2.63;;;588.80;1254.40;;;;;;5063728;28;20644;-69
2022/07/12 09:06:50;;;;;;;5.07;2.60;;;588.80;1484.80;;;;;;5057728;28;20488;-77
2022/07/12 09:09:30;;;;;;;4.28;2.72;;;588.80;1305.60;;;;;;5051915;28;20127;-67
2022/07/12 09:11:56;;;;;;;3.85;2.90;;;588.80;1536.00;;;;;;5042343;28;20049;-69
2022/07/12 09:14:22;;;;;;;4.82;2.72;;;588.80;1331.20;;;;;;5047841;28;20124;-76
2022/07/12 09:17:09;;;;;;;3.10;2.60;;;588.80;1382.40;;;;;;5063274;28;20041;-77
2022/07/12 09:19:36;;;;;;;3.35;2.33;;;588.80;1510.40;;;;;;5064190;28;20055;-76
2022/07/12 09:22:02;;;;;;;3.50;2.13;;;563.20;1536.00;;;;;;5063579;28;20048;-73
2022/07/12 09:24:28;;;;;;;3.45;2.80;;;588.80;1280.00;;;;;;5063045;28;20519;-71
2022/07/12 09:27:00;;;;;;;5.03;2.45;;;588.80;1305.60;;;;;;5063859;28;20040;-68
2022/07/12 09:29:26;;;;;;;4.07;2.50;;;588.80;1382.40;;;;;;5063936;28;20429;-73
2022/07/12 09:37:23;;;;;;;3.80;2.30;;;588.80;1433.60;;;;;;5064045;28;20075;-71
2022/07/12 09:39:51;;;;;;;3.40;2.30;;;588.80;1356.80;;;;;;5062566;28;20068;-71
2022/07/12 09:42:18;;;;;;;3.15;2.33;;;588.80;1356.80;;;;;;5062982;28;20068;-67
2022/07/12 09:44:43;;;;;;;3.67;2.17;;;588.80;1536.00;;;;;;5063923;28;20036;-69
2022/07/12 09:47:15;;;;;;;3.05;2.45;;;640.00;1356.80;;;;;;5063905;28;20118;-69
2022/07/12 09:49:42;;;;;;;3.75;2.55;;;588.80;1254.40;;;;;;5063821;28;20589;-69
2022/07/12 09:52:13;;;;;;;2.60;2.10;;;588.80;1382.40;;;;;;5063392;28;20434;-71
2022/07/12 09:54:41;;;;;;;3.92;2.65;;;588.80;1305.60;;;;;;5063422;28;20047;-70
2022/07/12 09:57:32;;;;;;;3.88;2.50;;;588.80;1280.00;;;;;;5062951;28;20921;-70
2022/07/12 09:59:59;;;;;;;2.75;2.30;;;588.80;1536.00;;;;;;5062486;28;20102;-68
2022/07/12 10:02:26;;;;;;;2.97;2.47;;;588.80;1331.20;;;;;;5062348;28;20087;-69
2022/07/12 10:04:52;;;;;;;2.85;2.20;;;588.80;1408.00;;;;;;5062921;28;20532;-70
2022/07/12 10:07:18;;;;;;;3.85;2.30;;;588.80;1280.00;;;;;;5056872;28;20048;-69
2022/07/12 10:09:47;;;;;;;5.45;2.70;;;588.80;1305.60;;;;;;5047843;28;20103;-70
2022/07/12 10:12:16;;;;;;;2.65;2.30;;;665.60;1408.00;;;;;;5041937;28;20418;-69
2022/07/12 10:14:44;;;;;;;6.70;2.50;;;588.80;1433.60;;;;;;5058426;28;20131;-71
2022/07/12 10:17:12;;;;;;;3.80;2.38;;;588.80;1356.80;;;;;;5043404;28;20123;-70
2022/07/12 10:19:39;;;;;;;3.38;2.22;;;588.80;1254.40;;;;;;5043330;28;20045;-70
2022/07/12 10:22:06;;;;;;;3.17;2.40;;;588.80;1408.00;;;;;;5042523;28;20040;-70
2022/07/12 10:24:32;;;;;;;3.67;2.30;;;588.80;1433.60;;;;;;5042906;28;20055;-70
2022/07/12 10:26:59;;;;;;;4.75;2.70;;;614.40;1561.60;;;;;;5057988;28;20056;-71
2022/07/12 10:29:25;;;;;;;2.80;2.10;;;588.80;1331.20;;;;;;5042995;28;20041;-70
2022/07/12 10:31:52;;;;;;;2.70;2.17;;;588.80;1510.40;;;;;;5042802;28;20418;-72
2022/07/12 10:34:22;;;;;;;2.75;2.20;;;614.40;1382.40;;;;;;5042528;28;20045;-71
2022/07/12 10:36:54;;;;;;;4.00;2.10;;;588.80;1408.00;;;;;;5042069;28;20053;-71
2022/07/12 10:39:21;;;;;;;2.58;2.17;;;588.80;1331.20;;;;;;5041913;28;20591;-70
2022/07/12 10:42:05;;;;;;;3.72;2.40;;;588.80;1408.00;;;;;;5043715;28;20195;-70
2022/07/12 10:44:36;;;;;;;2.30;1.73;;;614.40;1331.20;;;;;;5062306;28;20431;-70
2022/07/12 10:47:03;;;;;;;4.03;2.00;;;614.40;1305.60;;;;;;5062867;28;20060;-69
2022/07/12 10:49:32;;;;;;;4.15;2.38;;;665.60;1228.80;;;;;;5062640;28;20041;-69
2022/07/12 10:52:10;;;;;;;4.15;2.20;;;614.40;1536.00;;;;;;5062331;28;20044;-68
2022/07/12 10:54:36;;;;;;;5.50;2.00;;;614.40;1280.00;;;;;;5062624;28;20107;-68
2022/07/12 10:57:02;;;;;;;3.72;2.10;;;614.40;1510.40;;;;;;5061724;28;20127;-71
2022/07/12 10:59:30;;;;;;;2.90;2.03;;;665.60;1228.80;;;;;;5061795;28;20127;-71
2022/07/12 11:01:56;;;;;;;2.95;2.03;;;614.40;1356.80;;;;;;5062512;28;20070;-66
2022/07/12 11:04:22;;;;;;;4.68;1.90;;;614.40;1382.40;;;;;;5062331;28;20076;-69
2022/07/12 11:06:49;;;;;;;3.40;1.85;;;614.40;1408.00;;;;;;5056240;28;20083;-69
2022/07/12 11:09:17;;;;;;;2.70;1.85;;;614.40;1254.40;;;;;;5049997;28;20098;-68
2022/07/12 11:11:45;;;;;;;2.63;1.70;;;614.40;1356.80;;;;;;5042197;28;20041;-70
2022/07/12 11:14:19;;;;;;;3.45;1.70;;;614.40;1331.20;;;;;;5042997;28;20045;-71
2022/07/12 11:16:47;;;;;;;3.25;1.92;;;614.40;1433.60;;;;;;5057183;28;20091;-65
2022/07/12 11:19:13;;;;;;;3.50;1.98;;;665.60;1484.80;;;;;;5042645;28;20057;-66
2022/07/12 11:21:42;;;;;;;3.83;1.80;;;614.40;1331.20;;;;;;5042059;28;20442;-69
2022/07/12 11:24:19;;;;;;;3.58;1.77;;;614.40;1305.60;;;;;;5041669;28;20111;-65
2022/07/12 11:26:46;;;;;;;3.25;1.67;;;614.40;1536.00;;;;;;5042102;28;20106;-65
2022/07/12 11:29:12;;;;;;;2.55;1.80;;;614.40;1356.80;;;;;;5042212;28;20045;-67
2022/07/12 11:31:38;;;;;;;4.47;1.70;;;614.40;1331.20;;;;;;5057057;28;20401;-66
2022/07/12 11:34:04;;;;;;;4.05;1.60;;;614.40;1561.60;;;;;;5056415;28;20083;-67
2022/07/12 11:36:32;;;;;;;3.63;1.80;;;614.40;1305.60;;;;;;5056767;28;20993;-64
2022/07/12 11:38:57;;;;;;;4.20;1.60;;;614.40;1305.60;;;;;;5041903;28;20053;-65
2022/07/12 11:41:24;;;;;;;3.33;1.55;;;614.40;1331.20;;;;;;5039160;28;20081;-69
2022/07/12 11:43:50;;;;;;;5.43;1.73;;;614.40;1408.00;;;;;;5054854;28;20075;-68
2022/07/12 11:46:16;;;;;;;4.25;1.60;;;614.40;1254.40;;;;;;5059169;28;20750;-64
2022/07/12 11:48:43;;;;;;;2.80;1.70;;;614.40;1408.00;;;;;;5061297;28;20040;-65
2022/07/12 11:51:11;;;;;;;1.55;1.23;;;614.40;1305.60;;;;;;5060531;28;20075;-69
2022/07/12 11:53:38;;;;;;;2.30;1.67;;;614.40;1408.00;;;;;;5061159;28;20127;-68
2022/07/12 11:56:05;;;;;;;5.22;1.70;;;614.40;1484.80;;;;;;5060840;28;20039;-69
2022/07/12 11:58:33;;;;;;;2.35;1.30;;;614.40;1254.40;;;;;;5060763;28;20521;-70
2022/07/12 12:01:00;;;;;;;3.95;1.63;;;614.40;1305.60;;;;;;5060354;28;20558;-70
2022/07/12 12:03:26;;;;;;;2.70;1.42;;;614.40;1382.40;;;;;;5061395;28;20447;-71
2022/07/12 12:05:54;;;;;;;2.08;1.25;;;614.40;1356.80;;;;;;5060577;28;20281;-70
2022/07/12 12:08:20;;;;;;;3.45;1.27;;;614.40;1382.40;;;;;;5048930;28;20059;-73
2022/07/12 12:10:53;;;;;;;2.30;1.30;;;614.40;1331.20;;;;;;5060514;28;20044;-71
2022/07/12 12:13:19;;;;;;;2.35;1.42;;;614.40;1305.60;;;;;;5060542;28;20396;-70
2022/07/12 12:16:02;;;;;;;1.85;1.30;;;614.40;1280.00;;;;;;5061890;28;20048;-71
2022/07/12 12:18:28;;;;;;;1.77;1.17;;;614.40;1382.40;;;;;;5061231;28;20044;-71
2022/07/12 12:21:08;;;;;;;2.40;1.25;;;614.40;1356.80;;;;;;5061073;28;20052;-72
2022/07/12 12:23:36;;;;;;;1.90;1.20;;;614.40;1484.80;;;;;;5059570;28;20055;-71
2022/07/12 12:26:23;;;;;;;1.58;1.17;;;614.40;1331.20;;;;;;5060391;28;20052;-71